sensor_id;sensor_type;location;lat;lon;timestamp;P1;durP1;ratioP1;P2;durP2;ratioP2
8480;SDS011;4277;51.354;6.740;2023-07-24T00:00:00;4.07;;;3.42;;
8480;SDS011;4277;51.354;6.740;2023-07-24T00:02:26;3.90;;;3.00;;
8480;SDS011;4277;51.354;6.740;2023-07-24T00:04:52;7.50;;;3.22;;
8480;SDS011;4277;51.354;6.740;2023-07-24T00:07:18;7.00;;;4.00;;
8480;SDS011;4277;51.354;6.740;2023-07-24T00:09:44;3.17;;;2.75;;
8480;SDS011;4277;51.354;6.740;2023-07-24T00:12:10;4.50;;;3.05;;
8480;SDS011;4277;51.354;6.740;2023-07-24T00:14:36;5.07;;;3.20;;
8480;SDS011;4277;51.354;6.740;2023-07-24T00:17:02;4.65;;;3.10;;
8480;SDS011;4277;51.354;6.740;2023-07-24T00:19:28;5.15;;;3.58;;
8480;SDS011;4277;51.354;6.740;2023-07-24T00:21:54;5.22;;;3.60;;
8480;SDS011;4277;51.354;6.740;2023-07-24T00:24:20;4.22;;;3.17;;
8480;SDS011;4277;51.354;6.740;2023-07-24T00:26:46;5.22;;;3.38;;
8480;SDS011;4277;51.354;6.740;2023-07-24T00:29:12;6.53;;;3.15;;
8480;SDS011;4277;51.354;6.740;2023-07-24T00:31:38;5.00;;;3.13;;
8480;SDS011;4277;51.354;6.740;2023-07-24T00:34:03;4.47;;;3.05;;
8480;SDS011;4277;51.354;6.740;2023-07-24T00:36:29;3.30;;;3.00;;
8480;SDS011;4277;51.354;6.740;2023-07-24T00:38:55;3.30;;;3.00;;
8480;SDS011;4277;51.354;6.740;2023-07-24T00:41:21;3.55;;;2.60;;
8480;SDS011;4277;51.354;6.740;2023-07-24T00:43:47;3.88;;;2.70;;
8480;SDS011;4277;51.354;6.740;2023-07-24T00:46:13;2.70;;;2.50;;
8480;SDS011;4277;51.354;6.740;2023-07-24T00:48:39;8.35;;;3.22;;
8480;SDS011;4277;51.354;6.740;2023-07-24T00:51:06;3.92;;;3.10;;
8480;SDS011;4277;51.354;6.740;2023-07-24T00:53:32;4.65;;;2.95;;
8480;SDS011;4277;51.354;6.740;2023-07-24T00:55:58;3.00;;;2.70;;
8480;SDS011;4277;51.354;6.740;2023-07-24T00:58:24;4.80;;;3.28;;
8480;SDS011;4277;51.354;6.740;2023-07-24T01:00:50;4.05;;;2.83;;
8480;SDS011;4277;51.354;6.740;2023-07-24T01:03:16;4.72;;;3.20;;
8480;SDS011;4277;51.354;6.740;2023-07-24T01:05:42;4.05;;;3.40;;
8480;SDS011;4277;51.354;6.740;2023-07-24T01:08:07;4.80;;;3.40;;
8480;SDS011;4277;51.354;6.740;2023-07-24T01:10:33;4.63;;;3.13;;
8480;SDS011;4277;51.354;6.740;2023-07-24T01:13:08;3.10;;;2.80;;
8480;SDS011;4277;51.354;6.740;2023-07-24T01:15:36;3.78;;;3.30;;
8480;SDS011;4277;51.354;6.740;2023-07-24T01:18:06;3.92;;;2.85;;
8480;SDS011;4277;51.354;6.740;2023-07-24T01:20:33;5.75;;;3.60;;
8480;SDS011;4277;51.354;6.740;2023-07-24T01:23:13;4.45;;;3.60;;
8480;SDS011;4277;51.354;6.740;2023-07-24T01:25:55;5.43;;;3.50;;
8480;SDS011;4277;51.354;6.740;2023-07-24T01:28:22;4.50;;;3.05;;
8480;SDS011;4277;51.354;6.740;2023-07-24T01:30:48;4.20;;;3.30;;
8480;SDS011;4277;51.354;6.740;2023-07-24T01:33:14;6.30;;;3.40;;
8480;SDS011;4277;51.354;6.740;2023-07-24T01:35:44;5.85;;;3.30;;
8480;SDS011;4277;51.354;6.740;2023-07-24T01:38:13;5.55;;;3.28;;
8480;SDS011;4277;51.354;6.740;2023-07-24T01:40:39;3.60;;;3.25;;
8480;SDS011;4277;51.354;6.740;2023-07-24T01:43:05;5.00;;;3.05;;
8480;SDS011;4277;51.354;6.740;2023-07-24T01:45:31;6.72;;;3.40;;
8480;SDS011;4277;51.354;6.740;2023-07-24T01:47:58;4.75;;;3.60;;
8480;SDS011;4277;51.354;6.740;2023-07-24T01:50:24;8.18;;;3.85;;
8480;SDS011;4277;51.354;6.740;2023-07-24T01:52:50;4.72;;;3.88;;
8480;SDS011;4277;51.354;6.740;2023-07-24T01:55:15;4.85;;;3.35;;
8480;SDS011;4277;51.354;6.740;2023-07-24T01:57:41;5.78;;;4.03;;
8480;SDS011;4277;51.354;6.740;2023-07-24T02:00:07;6.07;;;3.60;;
8480;SDS011;4277;51.354;6.740;2023-07-24T02:02:34;5.10;;;3.80;;
8480;SDS011;4277;51.354;6.740;2023-07-24T02:04:59;7.32;;;3.80;;
8480;SDS011;4277;51.354;6.740;2023-07-24T02:07:25;5.72;;;3.97;;
8480;SDS011;4277;51.354;6.740;2023-07-24T02:09:51;6.95;;;3.88;;
8480;SDS011;4277;51.354;6.740;2023-07-24T02:12:17;5.38;;;3.63;;
8480;SDS011;4277;51.354;6.740;2023-07-24T02:14:43;4.95;;;3.60;;
8480;SDS011;4277;51.354;6.740;2023-07-24T02:17:09;5.65;;;3.92;;
8480;SDS011;4277;51.354;6.740;2023-07-24T02:19:35;5.20;;;3.65;;
8480;SDS011;4277;51.354;6.740;2023-07-24T02:22:01;7.32;;;4.00;;
8480;SDS011;4277;51.354;6.740;2023-07-24T02:24:27;5.20;;;3.83;;
8480;SDS011;4277;51.354;6.740;2023-07-24T02:26:53;5.22;;;3.90;;
8480;SDS011;4277;51.354;6.740;2023-07-24T02:29:19;4.63;;;3.40;;
8480;SDS011;4277;51.354;6.740;2023-07-24T02:31:45;4.63;;;3.50;;
8480;SDS011;4277;51.354;6.740;2023-07-24T02:34:11;4.60;;;3.88;;
8480;SDS011;4277;51.354;6.740;2023-07-24T02:36:37;5.93;;;4.47;;
8480;SDS011;4277;51.354;6.740;2023-07-24T02:39:04;7.88;;;4.70;;
8480;SDS011;4277;51.354;6.740;2023-07-24T02:41:29;5.07;;;3.95;;
8480;SDS011;4277;51.354;6.740;2023-07-24T02:43:55;9.40;;;4.22;;
8480;SDS011;4277;51.354;6.740;2023-07-24T02:46:21;7.30;;;4.90;;
8480;SDS011;4277;51.354;6.740;2023-07-24T02:48:49;6.00;;;4.60;;
8480;SDS011;4277;51.354;6.740;2023-07-24T02:51:15;7.70;;;4.65;;
8480;SDS011;4277;51.354;6.740;2023-07-24T02:53:41;6.90;;;4.60;;
8480;SDS011;4277;51.354;6.740;2023-07-24T02:56:07;7.32;;;4.25;;
8480;SDS011;4277;51.354;6.740;2023-07-24T02:58:33;8.50;;;4.78;;
8480;SDS011;4277;51.354;6.740;2023-07-24T03:01:02;7.43;;;4.70;;
8480;SDS011;4277;51.354;6.740;2023-07-24T03:03:29;8.82;;;4.78;;
8480;SDS011;4277;51.354;6.740;2023-07-24T03:05:55;9.48;;;5.20;;
8480;SDS011;4277;51.354;6.740;2023-07-24T03:08:21;8.02;;;4.82;;
8480;SDS011;4277;51.354;6.740;2023-07-24T03:10:47;8.70;;;4.78;;
8480;SDS011;4277;51.354;6.740;2023-07-24T03:13:13;7.00;;;5.03;;
8480;SDS011;4277;51.354;6.740;2023-07-24T03:15:39;9.70;;;4.85;;
8480;SDS011;4277;51.354;6.740;2023-07-24T03:18:04;10.10;;;4.60;;
8480;SDS011;4277;51.354;6.740;2023-07-24T03:20:30;7.55;;;5.00;;
8480;SDS011;4277;51.354;6.740;2023-07-24T03:22:56;8.65;;;4.78;;
8480;SDS011;4277;51.354;6.740;2023-07-24T03:25:22;10.38;;;5.05;;
8480;SDS011;4277;51.354;6.740;2023-07-24T03:27:48;5.22;;;4.70;;
8480;SDS011;4277;51.354;6.740;2023-07-24T03:30:14;8.18;;;4.88;;
8480;SDS011;4277;51.354;6.740;2023-07-24T03:32:40;7.97;;;5.30;;
8480;SDS011;4277;51.354;6.740;2023-07-24T03:35:06;7.75;;;5.20;;
8480;SDS011;4277;51.354;6.740;2023-07-24T03:37:34;7.43;;;5.20;;
8480;SDS011;4277;51.354;6.740;2023-07-24T03:40:00;5.63;;;4.53;;
8480;SDS011;4277;51.354;6.740;2023-07-24T03:42:27;6.47;;;4.88;;
8480;SDS011;4277;51.354;6.740;2023-07-24T03:44:53;9.02;;;5.05;;
8480;SDS011;4277;51.354;6.740;2023-07-24T03:47:20;7.00;;;4.72;;
8480;SDS011;4277;51.354;6.740;2023-07-24T03:49:46;5.70;;;4.40;;
8480;SDS011;4277;51.354;6.740;2023-07-24T03:52:11;9.05;;;4.97;;
8480;SDS011;4277;51.354;6.740;2023-07-24T03:54:37;10.23;;;5.00;;
8480;SDS011;4277;51.354;6.740;2023-07-24T03:57:03;7.18;;;4.78;;
8480;SDS011;4277;51.354;6.740;2023-07-24T03:59:30;9.13;;;4.90;;
8480;SDS011;4277;51.354;6.740;2023-07-24T04:01:56;7.53;;;4.68;;
8480;SDS011;4277;51.354;6.740;2023-07-24T04:04:22;7.80;;;4.85;;
8480;SDS011;4277;51.354;6.740;2023-07-24T04:06:48;9.43;;;4.95;;
8480;SDS011;4277;51.354;6.740;2023-07-24T04:09:14;7.47;;;4.93;;
8480;SDS011;4277;51.354;6.740;2023-07-24T04:11:41;6.90;;;4.90;;
8480;SDS011;4277;51.354;6.740;2023-07-24T04:14:07;8.05;;;4.80;;
8480;SDS011;4277;51.354;6.740;2023-07-24T04:16:33;8.20;;;4.80;;
8480;SDS011;4277;51.354;6.740;2023-07-24T04:18:59;10.63;;;5.55;;
8480;SDS011;4277;51.354;6.740;2023-07-24T04:21:25;9.30;;;5.10;;
8480;SDS011;4277;51.354;6.740;2023-07-24T04:23:51;8.50;;;4.95;;
8480;SDS011;4277;51.354;6.740;2023-07-24T04:26:17;8.13;;;5.22;;
8480;SDS011;4277;51.354;6.740;2023-07-24T04:28:43;9.90;;;5.10;;
8480;SDS011;4277;51.354;6.740;2023-07-24T04:31:09;6.10;;;4.65;;
8480;SDS011;4277;51.354;6.740;2023-07-24T04:33:35;9.43;;;4.78;;
8480;SDS011;4277;51.354;6.740;2023-07-24T04:36:01;9.07;;;4.82;;
8480;SDS011;4277;51.354;6.740;2023-07-24T04:38:27;8.30;;;5.10;;
8480;SDS011;4277;51.354;6.740;2023-07-24T04:40:53;6.57;;;5.22;;
8480;SDS011;4277;51.354;6.740;2023-07-24T04:43:19;7.10;;;4.80;;
8480;SDS011;4277;51.354;6.740;2023-07-24T04:45:45;8.10;;;5.13;;
8480;SDS011;4277;51.354;6.740;2023-07-24T04:48:11;9.57;;;5.30;;
8480;SDS011;4277;51.354;6.740;2023-07-24T04:50:36;5.93;;;4.70;;
8480;SDS011;4277;51.354;6.740;2023-07-24T04:53:02;11.70;;;5.13;;
8480;SDS011;4277;51.354;6.740;2023-07-24T04:55:28;7.80;;;5.65;;
8480;SDS011;4277;51.354;6.740;2023-07-24T04:57:54;6.88;;;5.18;;
8480;SDS011;4277;51.354;6.740;2023-07-24T05:00:20;10.05;;;5.30;;
8480;SDS011;4277;51.354;6.740;2023-07-24T05:02:46;6.15;;;4.88;;
8480;SDS011;4277;51.354;6.740;2023-07-24T05:05:12;10.48;;;5.05;;
8480;SDS011;4277;51.354;6.740;2023-07-24T05:07:38;10.32;;;5.15;;
8480;SDS011;4277;51.354;6.740;2023-07-24T05:10:04;7.10;;;5.32;;
8480;SDS011;4277;51.354;6.740;2023-07-24T05:12:30;10.55;;;4.97;;
8480;SDS011;4277;51.354;6.740;2023-07-24T05:14:56;12.85;;;5.20;;
8480;SDS011;4277;51.354;6.740;2023-07-24T05:17:22;7.28;;;5.32;;
8480;SDS011;4277;51.354;6.740;2023-07-24T05:19:48;7.05;;;4.80;;
8480;SDS011;4277;51.354;6.740;2023-07-24T05:22:14;7.93;;;4.88;;
8480;SDS011;4277;51.354;6.740;2023-07-24T05:24:40;8.25;;;5.18;;
8480;SDS011;4277;51.354;6.740;2023-07-24T05:27:06;8.60;;;4.93;;
8480;SDS011;4277;51.354;6.740;2023-07-24T05:29:32;10.50;;;5.43;;
8480;SDS011;4277;51.354;6.740;2023-07-24T05:31:58;9.52;;;5.43;;
8480;SDS011;4277;51.354;6.740;2023-07-24T05:34:24;6.22;;;5.32;;
8480;SDS011;4277;51.354;6.740;2023-07-24T05:36:50;10.05;;;5.57;;
8480;SDS011;4277;51.354;6.740;2023-07-24T05:39:16;7.75;;;5.25;;
8480;SDS011;4277;51.354;6.740;2023-07-24T05:41:42;8.35;;;5.63;;
8480;SDS011;4277;51.354;6.740;2023-07-24T05:44:08;7.32;;;5.45;;
8480;SDS011;4277;51.354;6.740;2023-07-24T05:46:34;7.60;;;4.80;;
8480;SDS011;4277;51.354;6.740;2023-07-24T05:49:00;7.07;;;5.05;;
8480;SDS011;4277;51.354;6.740;2023-07-24T05:51:26;8.50;;;4.88;;
8480;SDS011;4277;51.354;6.740;2023-07-24T05:53:52;7.13;;;5.15;;
8480;SDS011;4277;51.354;6.740;2023-07-24T05:56:18;7.93;;;5.22;;
8480;SDS011;4277;51.354;6.740;2023-07-24T05:58:44;5.97;;;4.88;;
8480;SDS011;4277;51.354;6.740;2023-07-24T06:01:10;6.57;;;4.93;;
8480;SDS011;4277;51.354;6.740;2023-07-24T06:03:36;5.93;;;4.65;;
8480;SDS011;4277;51.354;6.740;2023-07-24T06:06:04;8.50;;;5.22;;
8480;SDS011;4277;51.354;6.740;2023-07-24T06:08:30;6.22;;;5.00;;
8480;SDS011;4277;51.354;6.740;2023-07-24T06:10:56;7.72;;;5.28;;
8480;SDS011;4277;51.354;6.740;2023-07-24T06:13:22;7.38;;;4.95;;
8480;SDS011;4277;51.354;6.740;2023-07-24T06:15:48;7.53;;;5.50;;
8480;SDS011;4277;51.354;6.740;2023-07-24T06:18:14;6.53;;;5.05;;
8480;SDS011;4277;51.354;6.740;2023-07-24T06:20:40;8.07;;;4.95;;
8480;SDS011;4277;51.354;6.740;2023-07-24T06:23:05;7.68;;;4.72;;
8480;SDS011;4277;51.354;6.740;2023-07-24T06:25:31;6.35;;;4.75;;
8480;SDS011;4277;51.354;6.740;2023-07-24T06:31:01;7.68;;;4.78;;
8480;SDS011;4277;51.354;6.740;2023-07-24T06:33:27;7.15;;;4.45;;
8480;SDS011;4277;51.354;6.740;2023-07-24T06:35:53;8.05;;;4.47;;
8480;SDS011;4277;51.354;6.740;2023-07-24T06:38:19;5.90;;;4.68;;
8480;SDS011;4277;51.354;6.740;2023-07-24T06:40:46;4.93;;;4.20;;
8480;SDS011;4277;51.354;6.740;2023-07-24T06:43:12;4.90;;;4.40;;
8480;SDS011;4277;51.354;6.740;2023-07-24T06:45:38;5.53;;;4.07;;
8480;SDS011;4277;51.354;6.740;2023-07-24T06:48:04;4.57;;;4.07;;
8480;SDS011;4277;51.354;6.740;2023-07-24T06:50:30;6.50;;;3.90;;
8480;SDS011;4277;51.354;6.740;2023-07-24T06:52:55;6.75;;;4.35;;
8480;SDS011;4277;51.354;6.740;2023-07-24T06:55:21;5.00;;;4.18;;
8480;SDS011;4277;51.354;6.740;2023-07-24T06:57:47;4.20;;;3.80;;
8480;SDS011;4277;51.354;6.740;2023-07-24T07:00:12;6.00;;;3.95;;
8480;SDS011;4277;51.354;6.740;2023-07-24T07:02:38;4.40;;;4.00;;
8480;SDS011;4277;51.354;6.740;2023-07-24T07:05:04;4.35;;;3.85;;
8480;SDS011;4277;51.354;6.740;2023-07-24T07:07:30;4.40;;;4.00;;
8480;SDS011;4277;51.354;6.740;2023-07-24T07:09:56;4.28;;;3.85;;
8480;SDS011;4277;51.354;6.740;2023-07-24T07:12:21;4.85;;;4.00;;
8480;SDS011;4277;51.354;6.740;2023-07-24T07:14:47;4.30;;;3.90;;
8480;SDS011;4277;51.354;6.740;2023-07-24T07:17:12;4.07;;;3.58;;
8480;SDS011;4277;51.354;6.740;2023-07-24T07:19:38;5.30;;;3.80;;
8480;SDS011;4277;51.354;6.740;2023-07-24T07:22:04;5.00;;;4.00;;
8480;SDS011;4277;51.354;6.740;2023-07-24T07:24:30;5.28;;;3.60;;
8480;SDS011;4277;51.354;6.740;2023-07-24T07:26:56;5.55;;;4.00;;
8480;SDS011;4277;51.354;6.740;2023-07-24T07:29:21;3.85;;;3.55;;
8480;SDS011;4277;51.354;6.740;2023-07-24T07:31:47;4.78;;;3.42;;
8480;SDS011;4277;51.354;6.740;2023-07-24T07:34:13;4.63;;;3.35;;
8480;SDS011;4277;51.354;6.740;2023-07-24T07:36:38;7.68;;;3.92;;
8480;SDS011;4277;51.354;6.740;2023-07-24T07:39:04;5.10;;;3.75;;
8480;SDS011;4277;51.354;6.740;2023-07-24T07:41:29;4.45;;;3.22;;
8480;SDS011;4277;51.354;6.740;2023-07-24T07:43:55;5.75;;;3.28;;
8480;SDS011;4277;51.354;6.740;2023-07-24T07:46:20;3.85;;;3.45;;
8480;SDS011;4277;51.354;6.740;2023-07-24T07:48:46;5.93;;;3.40;;
8480;SDS011;4277;51.354;6.740;2023-07-24T07:51:12;5.32;;;3.90;;
8480;SDS011;4277;51.354;6.740;2023-07-24T07:53:37;5.20;;;3.58;;
8480;SDS011;4277;51.354;6.740;2023-07-24T07:56:03;6.60;;;4.28;;
8480;SDS011;4277;51.354;6.740;2023-07-24T07:58:29;7.75;;;4.10;;
8480;SDS011;4277;51.354;6.740;2023-07-24T08:00:55;5.15;;;3.90;;
8480;SDS011;4277;51.354;6.740;2023-07-24T08:03:20;4.50;;;3.90;;
8480;SDS011;4277;51.354;6.740;2023-07-24T08:05:46;5.40;;;4.22;;
8480;SDS011;4277;51.354;6.740;2023-07-24T08:08:12;7.13;;;4.90;;
8480;SDS011;4277;51.354;6.740;2023-07-24T08:10:38;7.95;;;4.88;;
8480;SDS011;4277;51.354;6.740;2023-07-24T08:13:03;5.60;;;4.43;;
8480;SDS011;4277;51.354;6.740;2023-07-24T08:15:33;5.75;;;4.53;;
8480;SDS011;4277;51.354;6.740;2023-07-24T08:17:59;5.30;;;4.32;;
8480;SDS011;4277;51.354;6.740;2023-07-24T08:20:25;5.80;;;4.53;;
8480;SDS011;4277;51.354;6.740;2023-07-24T08:22:50;6.00;;;4.35;;
8480;SDS011;4277;51.354;6.740;2023-07-24T08:25:16;4.60;;;3.90;;
8480;SDS011;4277;51.354;6.740;2023-07-24T08:27:42;4.30;;;3.88;;
8480;SDS011;4277;51.354;6.740;2023-07-24T08:30:08;5.80;;;3.72;;
8480;SDS011;4277;51.354;6.740;2023-07-24T08:32:34;5.30;;;3.75;;
8480;SDS011;4277;51.354;6.740;2023-07-24T08:35:00;4.10;;;3.47;;
8480;SDS011;4277;51.354;6.740;2023-07-24T08:37:25;4.18;;;3.80;;
8480;SDS011;4277;51.354;6.740;2023-07-24T08:39:51;4.47;;;3.80;;
8480;SDS011;4277;51.354;6.740;2023-07-24T08:42:16;4.30;;;3.60;;
8480;SDS011;4277;51.354;6.740;2023-07-24T08:44:42;3.90;;;3.50;;
8480;SDS011;4277;51.354;6.740;2023-07-24T08:47:11;4.90;;;3.13;;
8480;SDS011;4277;51.354;6.740;2023-07-24T08:49:38;3.45;;;3.10;;
8480;SDS011;4277;51.354;6.740;2023-07-24T08:52:05;3.97;;;3.30;;
8480;SDS011;4277;51.354;6.740;2023-07-24T08:54:31;4.50;;;3.20;;
8480;SDS011;4277;51.354;6.740;2023-07-24T08:57:00;3.60;;;2.63;;
8480;SDS011;4277;51.354;6.740;2023-07-24T08:59:26;2.97;;;2.63;;
8480;SDS011;4277;51.354;6.740;2023-07-24T09:01:53;2.67;;;2.47;;
8480;SDS011;4277;51.354;6.740;2023-07-24T09:04:19;2.60;;;2.40;;
8480;SDS011;4277;51.354;6.740;2023-07-24T09:06:44;3.28;;;2.42;;
8480;SDS011;4277;51.354;6.740;2023-07-24T09:09:14;4.32;;;2.45;;
8480;SDS011;4277;51.354;6.740;2023-07-24T09:11:50;2.38;;;2.17;;
8480;SDS011;4277;51.354;6.740;2023-07-24T09:14:24;3.30;;;2.50;;
8480;SDS011;4277;51.354;6.740;2023-07-24T09:17:08;4.35;;;2.53;;
8480;SDS011;4277;51.354;6.740;2023-07-24T09:19:35;3.85;;;2.10;;
8480;SDS011;4277;51.354;6.740;2023-07-24T09:22:16;2.35;;;2.10;;
8480;SDS011;4277;51.354;6.740;2023-07-24T09:24:51;2.35;;;2.15;;
8480;SDS011;4277;51.354;6.740;2023-07-24T09:27:19;3.13;;;2.03;;
8480;SDS011;4277;51.354;6.740;2023-07-24T09:29:45;4.82;;;2.25;;
8480;SDS011;4277;51.354;6.740;2023-07-24T09:32:21;3.17;;;2.30;;
8480;SDS011;4277;51.354;6.740;2023-07-24T09:34:48;4.43;;;2.50;;
8480;SDS011;4277;51.354;6.740;2023-07-24T09:37:49;2.53;;;2.33;;
8480;SDS011;4277;51.354;6.740;2023-07-24T09:40:08;2.65;;;2.28;;
8480;SDS011;4277;51.354;6.740;2023-07-24T09:42:35;4.13;;;2.65;;
8480;SDS011;4277;51.354;6.740;2023-07-24T09:45:02;4.03;;;2.60;;
8480;SDS011;4277;51.354;6.740;2023-07-24T09:47:29;3.47;;;2.58;;
8480;SDS011;4277;51.354;6.740;2023-07-24T09:49:55;3.10;;;2.80;;
8480;SDS011;4277;51.354;6.740;2023-07-24T09:52:21;4.80;;;2.83;;
8480;SDS011;4277;51.354;6.740;2023-07-24T09:57:36;2.70;;;2.50;;
8480;SDS011;4277;51.354;6.740;2023-07-24T10:00:02;3.63;;;2.90;;
8480;SDS011;4277;51.354;6.740;2023-07-24T10:02:28;3.00;;;2.70;;
8480;SDS011;4277;51.354;6.740;2023-07-24T10:04:55;5.95;;;2.85;;
8480;SDS011;4277;51.354;6.740;2023-07-24T10:07:21;3.88;;;2.92;;
8480;SDS011;4277;51.354;6.740;2023-07-24T10:09:48;3.60;;;3.13;;
8480;SDS011;4277;51.354;6.740;2023-07-24T10:12:16;3.58;;;2.72;;
8480;SDS011;4277;51.354;6.740;2023-07-24T10:14:43;3.70;;;2.83;;
8480;SDS011;4277;51.354;6.740;2023-07-24T10:17:10;2.90;;;2.70;;
8480;SDS011;4277;51.354;6.740;2023-07-24T10:19:39;2.83;;;2.60;;
8480;SDS011;4277;51.354;6.740;2023-07-24T10:22:08;3.60;;;2.92;;
8480;SDS011;4277;51.354;6.740;2023-07-24T10:24:34;4.88;;;2.72;;
8480;SDS011;4277;51.354;6.740;2023-07-24T10:27:02;3.33;;;2.80;;
8480;SDS011;4277;51.354;6.740;2023-07-24T10:29:28;5.53;;;3.00;;
8480;SDS011;4277;51.354;6.740;2023-07-24T10:31:54;3.20;;;2.90;;
8480;SDS011;4277;51.354;6.740;2023-07-24T10:34:20;4.07;;;2.67;;
8480;SDS011;4277;51.354;6.740;2023-07-24T10:36:46;3.45;;;2.88;;
8480;SDS011;4277;51.354;6.740;2023-07-24T10:39:13;3.40;;;3.10;;
8480;SDS011;4277;51.354;6.740;2023-07-24T10:41:40;3.35;;;3.05;;
8480;SDS011;4277;51.354;6.740;2023-07-24T10:44:06;5.55;;;3.25;;
8480;SDS011;4277;51.354;6.740;2023-07-24T10:46:38;3.58;;;3.00;;
8480;SDS011;4277;51.354;6.740;2023-07-24T10:49:04;5.50;;;4.03;;
8480;SDS011;4277;51.354;6.740;2023-07-24T10:51:30;6.15;;;3.80;;
8480;SDS011;4277;51.354;6.740;2023-07-24T10:54:03;6.25;;;3.85;;
8480;SDS011;4277;51.354;6.740;2023-07-24T10:56:29;5.05;;;3.67;;
8480;SDS011;4277;51.354;6.740;2023-07-24T10:58:55;3.63;;;3.30;;
8480;SDS011;4277;51.354;6.740;2023-07-24T11:01:21;3.03;;;2.53;;
8480;SDS011;4277;51.354;6.740;2023-07-24T11:03:48;5.93;;;3.05;;
8480;SDS011;4277;51.354;6.740;2023-07-24T11:06:15;3.72;;;2.47;;
8480;SDS011;4277;51.354;6.740;2023-07-24T11:08:41;3.53;;;2.90;;
8480;SDS011;4277;51.354;6.740;2023-07-24T11:11:07;3.22;;;2.40;;
8480;SDS011;4277;51.354;6.740;2023-07-24T11:13:33;3.35;;;2.35;;
8480;SDS011;4277;51.354;6.740;2023-07-24T11:16:06;4.05;;;2.55;;
8480;SDS011;4277;51.354;6.740;2023-07-24T11:18:32;2.60;;;2.40;;
8480;SDS011;4277;51.354;6.740;2023-07-24T11:21:08;9.15;;;2.50;;
8480;SDS011;4277;51.354;6.740;2023-07-24T11:23:34;7.90;;;3.28;;
8480;SDS011;4277;51.354;6.740;2023-07-24T11:26:01;5.72;;;2.75;;
8480;SDS011;4277;51.354;6.740;2023-07-24T11:28:38;6.40;;;2.85;;
8480;SDS011;4277;51.354;6.740;2023-07-24T11:31:04;4.63;;;3.03;;
8480;SDS011;4277;51.354;6.740;2023-07-24T11:33:30;3.90;;;2.67;;
8480;SDS011;4277;51.354;6.740;2023-07-24T11:35:56;7.07;;;2.80;;
8480;SDS011;4277;51.354;6.740;2023-07-24T11:38:22;2.92;;;2.60;;
8480;SDS011;4277;51.354;6.740;2023-07-24T11:40:48;6.93;;;2.78;;
8480;SDS011;4277;51.354;6.740;2023-07-24T11:43:19;4.68;;;3.15;;
8480;SDS011;4277;51.354;6.740;2023-07-24T11:45:45;5.97;;;3.35;;
8480;SDS011;4277;51.354;6.740;2023-07-24T11:48:17;5.00;;;3.50;;
8480;SDS011;4277;51.354;6.740;2023-07-24T11:50:47;5.90;;;3.35;;
8480;SDS011;4277;51.354;6.740;2023-07-24T11:53:29;5.15;;;3.35;;
8480;SDS011;4277;51.354;6.740;2023-07-24T11:55:56;4.28;;;3.10;;
8480;SDS011;4277;51.354;6.740;2023-07-24T11:58:25;4.10;;;2.70;;
8480;SDS011;4277;51.354;6.740;2023-07-24T12:00:51;4.43;;;2.40;;
8480;SDS011;4277;51.354;6.740;2023-07-24T12:03:24;2.95;;;2.10;;
8480;SDS011;4277;51.354;6.740;2023-07-24T12:05:51;4.00;;;2.35;;
8480;SDS011;4277;51.354;6.740;2023-07-24T12:08:18;2.80;;;2.00;;
8480;SDS011;4277;51.354;6.740;2023-07-24T12:10:44;3.45;;;1.90;;
8480;SDS011;4277;51.354;6.740;2023-07-24T12:13:10;2.35;;;1.90;;
8480;SDS011;4277;51.354;6.740;2023-07-24T12:15:37;3.95;;;1.70;;
8480;SDS011;4277;51.354;6.740;2023-07-24T12:18:03;3.28;;;1.85;;
8480;SDS011;4277;51.354;6.740;2023-07-24T12:20:29;2.30;;;1.60;;
8480;SDS011;4277;51.354;6.740;2023-07-24T12:22:56;2.28;;;2.05;;
8480;SDS011;4277;51.354;6.740;2023-07-24T12:25:22;2.13;;;1.92;;
8480;SDS011;4277;51.354;6.740;2023-07-24T12:27:48;2.05;;;1.50;;
8480;SDS011;4277;51.354;6.740;2023-07-24T12:30:14;2.28;;;1.70;;
8480;SDS011;4277;51.354;6.740;2023-07-24T12:32:39;2.42;;;2.00;;
8480;SDS011;4277;51.354;6.740;2023-07-24T12:35:05;1.95;;;1.75;;
8480;SDS011;4277;51.354;6.740;2023-07-24T12:37:32;5.03;;;1.92;;
8480;SDS011;4277;51.354;6.740;2023-07-24T12:39:57;4.72;;;1.90;;
8480;SDS011;4277;51.354;6.740;2023-07-24T12:42:23;2.10;;;1.73;;
8480;SDS011;4277;51.354;6.740;2023-07-24T12:44:49;3.60;;;2.00;;
8480;SDS011;4277;51.354;6.740;2023-07-24T12:47:14;4.18;;;2.10;;
8480;SDS011;4277;51.354;6.740;2023-07-24T12:49:40;5.30;;;2.20;;
8480;SDS011;4277;51.354;6.740;2023-07-24T12:52:06;2.65;;;2.00;;
8480;SDS011;4277;51.354;6.740;2023-07-24T12:54:33;2.10;;;1.67;;
8480;SDS011;4277;51.354;6.740;2023-07-24T12:56:59;2.08;;;1.83;;
8480;SDS011;4277;51.354;6.740;2023-07-24T12:59:25;2.90;;;1.73;;
8480;SDS011;4277;51.354;6.740;2023-07-24T13:01:50;1.88;;;1.77;;
8480;SDS011;4277;51.354;6.740;2023-07-24T13:04:16;2.55;;;2.08;;
8480;SDS011;4277;51.354;6.740;2023-07-24T13:06:41;2.47;;;2.10;;
8480;SDS011;4277;51.354;6.740;2023-07-24T13:09:07;2.20;;;1.98;;
8480;SDS011;4277;51.354;6.740;2023-07-24T13:11:32;3.58;;;2.10;;
8480;SDS011;4277;51.354;6.740;2023-07-24T13:13:58;2.28;;;2.08;;
8480;SDS011;4277;51.354;6.740;2023-07-24T13:16:24;2.72;;;1.95;;
8480;SDS011;4277;51.354;6.740;2023-07-24T13:18:49;2.65;;;2.20;;
8480;SDS011;4277;51.354;6.740;2023-07-24T13:21:15;2.45;;;2.25;;
8480;SDS011;4277;51.354;6.740;2023-07-24T13:23:41;3.75;;;2.30;;
8480;SDS011;4277;51.354;6.740;2023-07-24T13:26:07;5.03;;;2.22;;
8480;SDS011;4277;51.354;6.740;2023-07-24T13:28:33;5.05;;;2.40;;
8480;SDS011;4277;51.354;6.740;2023-07-24T13:30:59;4.97;;;2.50;;
8480;SDS011;4277;51.354;6.740;2023-07-24T13:33:25;4.57;;;2.83;;
8480;SDS011;4277;51.354;6.740;2023-07-24T13:35:51;4.40;;;2.30;;
8480;SDS011;4277;51.354;6.740;2023-07-24T13:38:17;3.88;;;2.30;;
8480;SDS011;4277;51.354;6.740;2023-07-24T13:40:44;1.90;;;1.80;;
8480;SDS011;4277;51.354;6.740;2023-07-24T13:43:10;3.70;;;2.30;;
8480;SDS011;4277;51.354;6.740;2023-07-24T13:45:36;2.67;;;2.30;;
8480;SDS011;4277;51.354;6.740;2023-07-24T13:48:02;2.92;;;2.03;;
8480;SDS011;4277;51.354;6.740;2023-07-24T13:50:28;2.75;;;2.05;;
8480;SDS011;4277;51.354;6.740;2023-07-24T13:52:54;2.40;;;2.20;;
8480;SDS011;4277;51.354;6.740;2023-07-24T13:55:20;2.58;;;2.20;;
8480;SDS011;4277;51.354;6.740;2023-07-24T13:57:46;2.13;;;1.92;;
8480;SDS011;4277;51.354;6.740;2023-07-24T14:00:12;1.90;;;1.80;;
8480;SDS011;4277;51.354;6.740;2023-07-24T14:02:38;1.90;;;1.73;;
8480;SDS011;4277;51.354;6.740;2023-07-24T14:05:04;1.65;;;1.45;;
8480;SDS011;4277;51.354;6.740;2023-07-24T14:07:30;2.50;;;1.52;;
8480;SDS011;4277;51.354;6.740;2023-07-24T14:09:56;1.95;;;1.75;;
8480;SDS011;4277;51.354;6.740;2023-07-24T14:12:22;1.70;;;1.60;;
8480;SDS011;4277;51.354;6.740;2023-07-24T14:14:48;1.83;;;1.67;;
8480;SDS011;4277;51.354;6.740;2023-07-24T14:17:14;1.75;;;1.65;;
8480;SDS011;4277;51.354;6.740;2023-07-24T14:19:40;1.60;;;1.50;;
8480;SDS011;4277;51.354;6.740;2023-07-24T14:22:06;4.47;;;1.95;;
8480;SDS011;4277;51.354;6.740;2023-07-24T14:24:32;1.80;;;1.67;;
8480;SDS011;4277;51.354;6.740;2023-07-24T14:26:58;1.90;;;1.75;;
8480;SDS011;4277;51.354;6.740;2023-07-24T14:29:24;2.08;;;1.80;;
8480;SDS011;4277;51.354;6.740;2023-07-24T14:31:50;2.47;;;1.80;;
8480;SDS011;4277;51.354;6.740;2023-07-24T14:34:16;2.08;;;1.92;;
8480;SDS011;4277;51.354;6.740;2023-07-24T14:36:41;2.42;;;2.22;;
8480;SDS011;4277;51.354;6.740;2023-07-24T14:39:07;2.42;;;2.22;;
8480;SDS011;4277;51.354;6.740;2023-07-24T14:41:34;2.33;;;2.17;;
8480;SDS011;4277;51.354;6.740;2023-07-24T14:44:00;3.15;;;2.30;;
8480;SDS011;4277;51.354;6.740;2023-07-24T14:46:26;3.03;;;2.30;;
8480;SDS011;4277;51.354;6.740;2023-07-24T14:48:52;3.38;;;2.40;;
8480;SDS011;4277;51.354;6.740;2023-07-24T14:51:18;5.05;;;2.40;;
8480;SDS011;4277;51.354;6.740;2023-07-24T14:53:44;2.85;;;2.25;;
8480;SDS011;4277;51.354;6.740;2023-07-24T14:56:10;2.78;;;2.30;;
8480;SDS011;4277;51.354;6.740;2023-07-24T14:58:35;2.92;;;2.42;;
8480;SDS011;4277;51.354;6.740;2023-07-24T15:01:01;2.38;;;2.20;;
8480;SDS011;4277;51.354;6.740;2023-07-24T15:03:28;5.05;;;2.50;;
8480;SDS011;4277;51.354;6.740;2023-07-24T15:05:54;2.65;;;2.42;;
8480;SDS011;4277;51.354;6.740;2023-07-24T15:08:21;2.88;;;2.55;;
8480;SDS011;4277;51.354;6.740;2023-07-24T15:10:47;3.22;;;2.53;;
8480;SDS011;4277;51.354;6.740;2023-07-24T15:13:13;2.90;;;2.20;;
8480;SDS011;4277;51.354;6.740;2023-07-24T15:15:39;2.50;;;2.15;;